createdAt,value
2023-03-29T00:00:36.002Z,28.50
2023-03-29T00:03:03.880Z,31.75
2023-03-29T00:05:35.114Z,34.20
2023-03-29T00:08:03.787Z,31.98
2023-03-29T00:10:31.913Z,27.00
2023-03-29T00:13:02.447Z,31.13
2023-03-29T00:15:29.586Z,27.10
2023-03-29T00:17:57.376Z,28.55
2023-03-29T00:20:25.132Z,28.60
2023-03-29T00:22:52.241Z,34.65
2023-03-29T00:25:19.756Z,33.13
2023-03-29T00:27:46.933Z,28.92
2023-03-29T00:30:15.041Z,26.30
2023-03-29T00:32:42.798Z,24.83
2023-03-29T00:35:10.724Z,26.15
2023-03-29T00:37:37.907Z,31.42
2023-03-29T00:40:10.718Z,27.80
2023-03-29T00:42:38.163Z,29.15
2023-03-29T00:45:07.225Z,34.60
2023-03-29T00:47:42.615Z,21.65
2023-03-29T00:50:29.259Z,30.42
2023-03-29T00:53:04.028Z,33.55
2023-03-29T00:55:34.689Z,35.65
2023-03-29T00:58:02.504Z,34.30
2023-03-29T01:00:33.155Z,49.92
2023-03-29T01:03:00.607Z,55.17
2023-03-29T01:05:40.174Z,69.82
2023-03-29T01:08:27.432Z,55.50
2023-03-29T01:11:12.296Z,52.40
2023-03-29T01:13:55.256Z,42.75
2023-03-29T01:18:53.316Z,40.40
2023-03-29T01:21:33.211Z,44.33
2023-03-29T01:24:10.514Z,33.72
2023-03-29T01:27:00.650Z,32.35
2023-03-29T01:29:54.271Z,33.33
2023-03-29T01:32:35.712Z,35.80
2023-03-29T01:35:13.995Z,26.42
2023-03-29T01:38:02.337Z,35.75
2023-03-29T01:40:30.981Z,34.22
2023-03-29T01:43:21.101Z,38.55
2023-03-29T01:46:02.842Z,37.72
2023-03-29T01:48:33.401Z,36.67
2023-03-29T01:51:07.360Z,35.40
2023-03-29T01:53:45.417Z,34.50
2023-03-29T01:56:17.952Z,47.17
2023-03-29T01:58:50.951Z,31.85
2023-03-29T02:01:23.000Z,31.00
2023-03-29T02:03:51.053Z,35.40
2023-03-29T02:06:20.536Z,30.17
2023-03-29T02:08:47.882Z,21.27
2023-03-29T02:11:15.693Z,23.35
2023-03-29T02:13:43.386Z,24.40
2023-03-29T02:16:14.434Z,22.05
2023-03-29T02:18:43.752Z,24.88
2023-03-29T02:21:17.967Z,35.63
2023-03-29T02:23:45.952Z,26.88
2023-03-29T02:26:14.189Z,21.23
2023-03-29T02:28:41.931Z,24.88
2023-03-29T02:31:26.460Z,24.63
2023-03-29T02:34:01.544Z,26.08
2023-03-29T02:36:46.410Z,22.50
2023-03-29T02:39:15.206Z,24.85
2023-03-29T02:41:44.134Z,24.77
2023-03-29T02:44:13.925Z,25.38
2023-03-29T02:46:43.528Z,19.92
2023-03-29T02:49:12.422Z,16.95
2023-03-29T02:51:39.517Z,18.27
2023-03-29T02:54:13.687Z,18.30
2023-03-29T02:56:48.991Z,29.10
2023-03-29T02:59:19.537Z,20.55
2023-03-29T03:01:46.917Z,34.53
2023-03-29T03:04:14.580Z,27.38
2023-03-29T03:06:41.688Z,17.85
2023-03-29T03:09:10.762Z,15.80
2023-03-29T03:11:41.518Z,22.42
2023-03-29T03:14:09.263Z,28.70
2023-03-29T03:16:37.248Z,18.88
2023-03-29T03:19:05.473Z,21.23
2023-03-29T03:21:33.948Z,20.80
2023-03-29T03:24:01.116Z,18.58
2023-03-29T03:26:32.342Z,12.82
2023-03-29T03:29:00.905Z,22.10
2023-03-29T03:31:47.448Z,26.40
2023-03-29T03:34:35.281Z,29.10
2023-03-29T03:37:03.309Z,15.35
2023-03-29T03:39:33.852Z,16.80
2023-03-29T03:42:07.892Z,18.60
2023-03-29T03:44:41.617Z,17.48
2023-03-29T03:47:28.946Z,20.77
2023-03-29T03:49:58.713Z,16.38
2023-03-29T03:52:26.993Z,15.90
2023-03-29T03:54:54.256Z,13.40
2023-03-29T03:57:42.044Z,22.02
2023-03-29T04:00:19.811Z,21.15
2023-03-29T04:02:57.755Z,19.55
2023-03-29T04:05:26.097Z,18.63
2023-03-29T04:07:55.960Z,18.90
2023-03-29T04:10:42.190Z,17.30
2023-03-29T04:13:17.185Z,14.65
2023-03-29T04:18:37.803Z,23.35
2023-03-29T04:21:05.640Z,26.42
2023-03-29T04:23:36.109Z,14.30
2023-03-29T04:26:03.769Z,19.17
2023-03-29T04:28:47.481Z,23.00
2023-03-29T04:31:22.949Z,16.73
2023-03-29T04:34:19.501Z,23.48
2023-03-29T04:36:52.770Z,15.40
2023-03-29T04:39:31.980Z,14.70
2023-03-29T04:42:02.589Z,14.73
2023-03-29T04:44:33.628Z,11.48
2023-03-29T04:49:49.753Z,18.85
2023-03-29T04:52:32.792Z,17.40
2023-03-29T04:55:02.594Z,12.50
2023-03-29T04:57:48.957Z,13.13
2023-03-29T05:00:27.341Z,7.40
2023-03-29T05:03:13.206Z,12.10
2023-03-29T05:05:51.887Z,20.63
2023-03-29T05:08:19.012Z,17.17
2023-03-29T05:11:24.471Z,12.13
2023-03-29T05:13:52.260Z,9.43
2023-03-29T05:16:20.745Z,13.23
2023-03-29T05:18:48.652Z,10.82
2023-03-29T05:21:16.332Z,10.93
2023-03-29T05:23:45.854Z,18.83
2023-03-29T05:26:39.712Z,17.88
2023-03-29T05:29:09.148Z,13.27
2023-03-29T05:31:37.612Z,6.05
2023-03-29T05:34:05.165Z,12.02
2023-03-29T05:36:35.519Z,16.38
2023-03-29T05:39:05.021Z,22.08
2023-03-29T05:41:34.198Z,15.43
2023-03-29T05:44:01.450Z,11.45
2023-03-29T05:46:29.836Z,16.67
2023-03-29T05:49:01.738Z,13.57
2023-03-29T05:51:49.138Z,14.70
2023-03-29T05:54:16.780Z,11.00
2023-03-29T05:56:44.411Z,10.25
2023-03-29T05:59:13.410Z,16.27
2023-03-29T06:01:41.581Z,13.13
2023-03-29T06:04:12.668Z,42.50
2023-03-29T06:06:53.196Z,17.17
2023-03-29T06:09:20.875Z,45.67
2023-03-29T06:11:57.314Z,21.70
2023-03-29T06:14:45.643Z,19.60
2023-03-29T06:17:30.687Z,22.13
2023-03-29T06:19:58.241Z,12.48
2023-03-29T06:22:27.430Z,11.20
2023-03-29T06:24:54.862Z,19.33
2023-03-29T06:27:26.041Z,13.60
2023-03-29T06:29:53.850Z,12.00
2023-03-29T06:32:21.883Z,13.10
2023-03-29T06:34:58.762Z,13.75
2023-03-29T06:37:49.010Z,15.88
2023-03-29T06:40:28.929Z,18.02
2023-03-29T06:42:57.773Z,17.63
2023-03-29T06:45:27.482Z,8.48
2023-03-29T06:47:59.153Z,16.60
2023-03-29T06:50:27.089Z,5.18
2023-03-29T06:53:15.601Z,11.10
2023-03-29T06:55:45.540Z,15.00
2023-03-29T06:58:33.329Z,14.02
2023-03-29T07:01:08.210Z,6.28
2023-03-29T07:03:50.329Z,12.25
2023-03-29T07:06:26.051Z,8.07
2023-03-29T07:08:59.266Z,12.68
2023-03-29T07:12:05.370Z,5.97
2023-03-29T07:14:33.206Z,8.00
2023-03-29T07:17:00.768Z,9.13
2023-03-29T07:19:39.258Z,8.88
2023-03-29T07:22:30.011Z,11.45
2023-03-29T07:25:01.615Z,9.23
2023-03-29T07:27:30.159Z,13.32
2023-03-29T07:29:58.154Z,8.85
2023-03-29T07:32:26.630Z,15.85
2023-03-29T07:35:11.934Z,8.48
2023-03-29T07:37:39.736Z,11.43
2023-03-29T07:40:11.012Z,16.92
2023-03-29T07:42:48.177Z,14.02
2023-03-29T07:45:26.698Z,8.50
2023-03-29T07:48:06.981Z,8.80
2023-03-29T07:50:54.722Z,15.23
2023-03-29T07:55:58.769Z,7.70
2023-03-29T07:58:44.636Z,12.75
2023-03-29T08:01:17.976Z,9.65
2023-03-29T08:04:10.309Z,14.77
2023-03-29T08:06:56.080Z,9.68
2023-03-29T08:09:31.761Z,11.45
2023-03-29T08:12:00.182Z,12.95
2023-03-29T08:14:38.100Z,8.10
2023-03-29T08:17:15.800Z,11.55
2023-03-29T08:19:50.988Z,14.50
2023-03-29T08:22:24.786Z,13.80
2023-03-29T08:25:27.941Z,11.40
2023-03-29T08:27:56.199Z,21.67
2023-03-29T08:30:50.741Z,7.03
2023-03-29T08:33:19.267Z,19.15
2023-03-29T08:35:54.313Z,8.07
2023-03-29T08:38:29.658Z,16.48
2023-03-29T08:40:57.807Z,4.68
2023-03-29T08:44:02.764Z,3.35
2023-03-29T08:46:55.795Z,23.33
2023-03-29T08:49:32.175Z,7.68
2023-03-29T08:52:03.361Z,6.85
2023-03-29T08:54:37.472Z,9.80
2023-03-29T08:57:33.367Z,7.15
2023-03-29T09:00:07.472Z,18.15
2023-03-29T09:02:39.025Z,10.85
2023-03-29T09:05:35.654Z,9.85
2023-03-29T09:08:18.691Z,8.88
2023-03-29T09:11:37.516Z,13.07
2023-03-29T09:14:33.329Z,18.08
2023-03-29T09:17:12.433Z,11.52
2023-03-29T09:19:45.439Z,18.23
2023-03-29T09:22:32.662Z,15.75
2023-03-29T09:25:23.952Z,6.20
2023-03-29T09:28:05.072Z,13.05
2023-03-29T09:30:44.584Z,17.75
2023-03-29T09:33:17.174Z,13.27
2023-03-29T09:36:04.806Z,9.77
2023-03-29T09:38:35.610Z,9.05
2023-03-29T09:41:21.704Z,8.10
2023-03-29T09:43:50.520Z,13.20
2023-03-29T09:46:29.094Z,11.98
2023-03-29T09:48:57.123Z,26.02
2023-03-29T09:51:27.396Z,20.73
2023-03-29T09:53:56.777Z,16.08
2023-03-29T09:56:53.594Z,16.80
2023-03-29T09:59:22.161Z,8.38
2023-03-29T10:01:49.457Z,8.00
2023-03-29T10:04:17.745Z,9.30
2023-03-29T10:06:52.658Z,11.45
2023-03-29T10:09:21.937Z,17.83
2023-03-29T10:11:54.116Z,23.40
2023-03-29T10:14:42.709Z,26.45
2023-03-29T10:17:16.325Z,29.58
2023-03-29T10:19:51.391Z,18.95
2023-03-29T10:22:37.592Z,9.10
2023-03-29T10:25:09.432Z,8.60
2023-03-29T10:27:37.300Z,9.30
2023-03-29T10:30:11.681Z,10.52
2023-03-29T10:32:39.438Z,13.85
2023-03-29T10:35:22.726Z,17.63
2023-03-29T10:37:51.717Z,7.10
2023-03-29T10:40:26.392Z,17.15
2023-03-29T10:42:53.976Z,16.55
2023-03-29T10:45:25.471Z,9.73
2023-03-29T10:47:55.680Z,13.35
2023-03-29T10:50:23.574Z,11.15
2023-03-29T10:52:51.399Z,13.73
2023-03-29T10:55:19.764Z,16.05
2023-03-29T10:57:52.821Z,8.13
2023-03-29T11:00:27.543Z,16.70
2023-03-29T11:03:21.393Z,6.65
2023-03-29T11:05:52.280Z,10.50
2023-03-29T11:08:38.452Z,7.88
2023-03-29T11:11:14.460Z,13.75
2023-03-29T11:14:14.267Z,10.20
2023-03-29T11:17:03.190Z,11.55
2023-03-29T11:20:05.168Z,14.50
2023-03-29T11:23:18.013Z,19.40
2023-03-29T11:25:45.337Z,14.85
2023-03-29T11:28:24.134Z,23.77
2023-03-29T11:30:53.431Z,17.63
2023-03-29T11:33:33.437Z,15.75
2023-03-29T11:36:00.517Z,18.75
2023-03-29T11:38:35.818Z,15.38
2023-03-29T11:41:20.352Z,24.08
2023-03-29T11:43:49.811Z,23.90
2023-03-29T11:46:40.009Z,17.90
2023-03-29T11:49:36.837Z,22.25
2023-03-29T11:52:39.451Z,18.05
2023-03-29T11:55:25.800Z,22.70
2023-03-29T11:57:56.881Z,22.27
2023-03-29T12:00:27.640Z,31.42
2023-03-29T12:03:15.299Z,21.48
2023-03-29T12:05:45.733Z,25.15
2023-03-29T12:08:28.393Z,26.60
2023-03-29T12:11:04.380Z,28.50
2023-03-29T12:13:32.762Z,37.08
2023-03-29T12:16:22.185Z,36.50
2023-03-29T12:18:50.322Z,39.55
2023-03-29T12:21:26.288Z,45.75
2023-03-29T12:23:55.134Z,41.17
2023-03-29T12:26:54.900Z,41.53
2023-03-29T12:29:46.565Z,34.00
2023-03-29T12:32:36.424Z,37.38
2023-03-29T12:35:39.006Z,38.28
2023-03-29T12:38:30.968Z,27.58
2023-03-29T12:41:21.653Z,36.95
2023-03-29T12:44:24.627Z,31.90
2023-03-29T12:47:10.315Z,40.03
2023-03-29T12:49:38.310Z,53.20
2023-03-29T12:52:21.677Z,45.95
2023-03-29T12:54:57.120Z,47.55
2023-03-29T12:57:40.786Z,46.53
2023-03-29T13:00:21.322Z,35.90
2023-03-29T13:03:27.160Z,70.57
2023-03-29T13:06:05.648Z,56.53
2023-03-29T13:08:38.334Z,48.85
2023-03-29T13:11:06.308Z,62.17
2023-03-29T13:13:37.625Z,45.80
2023-03-29T13:16:11.620Z,47.13
2023-03-29T13:18:41.903Z,55.90
2023-03-29T13:21:50.586Z,70.22
2023-03-29T13:24:20.953Z,52.85
2023-03-29T13:27:00.410Z,60.05
2023-03-29T13:29:58.732Z,36.90
2023-03-29T13:32:36.738Z,62.72
2023-03-29T13:35:25.602Z,53.28
2023-03-29T13:38:17.856Z,63.20
2023-03-29T13:40:47.405Z,53.88
2023-03-29T13:43:18.931Z,55.00
2023-03-29T13:45:57.217Z,50.72
2023-03-29T13:48:33.248Z,52.83
2023-03-29T13:51:02.182Z,39.40
2023-03-29T13:53:32.905Z,37.90
2023-03-29T13:56:00.570Z,43.47
2023-03-29T13:58:46.244Z,60.33
2023-03-29T14:01:19.562Z,86.32
2023-03-29T14:03:48.598Z,66.78
2023-03-29T14:06:21.999Z,79.47
2023-03-29T14:08:49.692Z,77.25
2023-03-29T14:11:28.530Z,79.25
2023-03-29T14:14:00.004Z,62.50
2023-03-29T14:16:29.141Z,74.07
2023-03-29T14:18:59.000Z,62.70
2023-03-29T14:21:26.276Z,69.75
2023-03-29T14:24:03.475Z,61.15
2023-03-29T14:26:32.813Z,69.65
2023-03-29T14:29:01.101Z,67.03
2023-03-29T14:31:33.321Z,70.35
2023-03-29T14:34:01.965Z,53.73
2023-03-29T14:36:30.303Z,58.08
2023-03-29T14:39:17.842Z,51.55
2023-03-29T14:41:50.114Z,49.08
2023-03-29T14:44:18.697Z,53.92
2023-03-29T14:46:48.992Z,68.70
2023-03-29T14:49:17.571Z,60.90
2023-03-29T14:51:45.822Z,80.68
2023-03-29T14:54:33.659Z,66.43
2023-03-29T14:57:03.984Z,61.65
2023-03-29T14:59:38.641Z,76.72
2023-03-29T15:02:22.148Z,85.43
2023-03-29T15:05:05.335Z,98.03
2023-03-29T15:07:34.003Z,86.45
2023-03-29T15:10:02.062Z,88.50
2023-03-29T15:12:30.382Z,101.50
2023-03-29T15:14:58.233Z,91.20
2023-03-29T15:17:43.151Z,94.40
2023-03-29T15:20:28.158Z,97.10
2023-03-29T15:23:04.249Z,98.22
2023-03-29T15:25:38.839Z,80.38
2023-03-29T15:28:06.415Z,81.88
2023-03-29T15:30:45.095Z,76.43
2023-03-29T15:33:16.564Z,67.70
2023-03-29T15:35:44.165Z,80.40
2023-03-29T15:38:12.547Z,82.07
2023-03-29T15:40:39.981Z,93.68
2023-03-29T15:43:07.462Z,81.38
2023-03-29T15:45:34.708Z,110.13
2023-03-29T15:48:04.432Z,120.93
2023-03-29T15:50:32.279Z,113.82
2023-03-29T15:53:08.614Z,118.30
2023-03-29T15:55:41.457Z,137.07
2023-03-29T15:58:15.388Z,137.55
2023-03-29T16:00:43.833Z,124.68
2023-03-29T16:03:13.014Z,133.18
2023-03-29T16:05:40.684Z,114.72
2023-03-29T16:08:12.411Z,114.13
2023-03-29T16:10:40.544Z,108.93
2023-03-29T16:13:09.671Z,89.35
2023-03-29T16:15:37.473Z,82.28
2023-03-29T16:18:05.368Z,63.97
2023-03-29T16:20:32.840Z,60.05
2023-03-29T16:23:01.094Z,63.45
2023-03-29T16:25:28.757Z,60.13
2023-03-29T16:27:56.508Z,76.93
2023-03-29T16:30:24.975Z,61.45
2023-03-29T16:32:52.022Z,61.03
2023-03-29T16:35:26.673Z,64.88
2023-03-29T16:37:53.817Z,75.30
2023-03-29T16:40:21.742Z,109.13
2023-03-29T16:42:49.400Z,97.88
2023-03-29T16:45:16.655Z,111.38
2023-03-29T16:47:44.618Z,90.22
2023-03-29T16:50:17.782Z,147.70
2023-03-29T16:52:45.475Z,126.65
2023-03-29T16:55:13.225Z,131.80
2023-03-29T16:57:42.101Z,133.60
2023-03-29T17:00:19.673Z,145.90
2023-03-29T17:02:50.474Z,157.00
2023-03-29T17:05:18.396Z,151.70
2023-03-29T17:07:45.605Z,170.93
2023-03-29T17:10:12.974Z,148.75
2023-03-29T17:12:40.894Z,126.70
2023-03-29T17:15:09.046Z,144.35
2023-03-29T17:17:37.809Z,115.97
2023-03-29T17:20:11.911Z,139.70
2023-03-29T17:22:39.777Z,151.93
2023-03-29T17:25:07.641Z,152.32
2023-03-29T17:27:35.510Z,128.15
2023-03-29T17:30:02.568Z,109.97
2023-03-29T17:32:29.882Z,97.32
2023-03-29T17:34:58.965Z,61.65
2023-03-29T17:37:27.496Z,45.25
2023-03-29T17:39:55.058Z,36.50
2023-03-29T17:42:22.268Z,37.58
2023-03-29T17:44:49.655Z,46.65
2023-03-29T17:47:16.885Z,38.78
2023-03-29T17:49:44.094Z,33.60
2023-03-29T17:52:11.916Z,42.00
2023-03-29T17:54:39.304Z,50.97
2023-03-29T17:57:07.059Z,92.72
2023-03-29T17:59:34.653Z,125.13
2023-03-29T18:02:04.949Z,131.35
2023-03-29T18:04:33.534Z,111.82
2023-03-29T18:07:01.301Z,113.45
2023-03-29T18:09:30.240Z,93.88
2023-03-29T18:11:58.816Z,86.18
2023-03-29T18:14:26.080Z,77.82
2023-03-29T18:16:53.366Z,119.95
2023-03-29T18:19:20.527Z,97.75
2023-03-29T18:21:48.144Z,98.95
2023-03-29T18:24:15.159Z,88.50
2023-03-29T18:26:42.509Z,84.15
2023-03-29T18:29:10.007Z,82.47
2023-03-29T18:31:37.819Z,139.82
2023-03-29T18:34:05.553Z,91.53
2023-03-29T18:36:32.983Z,130.45
2023-03-29T18:39:05.364Z,128.63
2023-03-29T18:41:33.811Z,91.90
2023-03-29T18:44:01.365Z,74.40
2023-03-29T18:46:30.849Z,94.68
2023-03-29T18:49:01.120Z,67.50
2023-03-29T18:51:28.342Z,58.70
2023-03-29T18:53:55.733Z,54.63
2023-03-29T18:56:22.994Z,62.65
2023-03-29T18:58:50.702Z,68.90
2023-03-29T19:01:17.746Z,69.28
2023-03-29T19:03:45.090Z,42.70
2023-03-29T19:06:12.761Z,59.72
2023-03-29T19:08:41.007Z,46.78
2023-03-29T19:11:10.271Z,32.88
2023-03-29T19:13:37.614Z,46.58
2023-03-29T19:16:05.923Z,32.65
2023-03-29T19:18:33.152Z,29.83
2023-03-29T19:21:00.811Z,46.38
2023-03-29T19:23:28.253Z,42.17
2023-03-29T19:26:00.252Z,46.30
2023-03-29T19:28:27.538Z,58.85
2023-03-29T19:30:56.003Z,46.97
2023-03-29T19:33:23.068Z,42.58
2023-03-29T19:35:51.416Z,52.53
2023-03-29T19:38:19.249Z,48.63
2023-03-29T19:40:49.796Z,50.13
2023-03-29T19:43:17.940Z,67.07
2023-03-29T19:45:49.481Z,60.38
2023-03-29T19:48:22.550Z,65.70
2023-03-29T19:50:51.094Z,31.73
2023-03-29T19:53:18.452Z,44.20
2023-03-29T19:55:46.199Z,29.77
2023-03-29T19:58:13.379Z,41.42
2023-03-29T20:00:41.314Z,40.80
2023-03-29T20:03:12.596Z,45.50
2023-03-29T20:05:40.123Z,39.03
2023-03-29T20:08:07.521Z,41.00
2023-03-29T20:10:38.148Z,36.67
2023-03-29T20:13:06.207Z,33.15
2023-03-29T20:15:33.802Z,33.92
2023-03-29T20:18:01.564Z,32.10
2023-03-29T20:20:29.985Z,42.35
2023-03-29T20:23:03.696Z,40.03
2023-03-29T20:25:34.406Z,39.20
2023-03-29T20:28:02.196Z,41.42
2023-03-29T20:30:29.683Z,48.50
2023-03-29T20:32:57.146Z,47.30
2023-03-29T20:35:24.609Z,48.92
2023-03-29T20:37:51.866Z,59.60
2023-03-29T20:40:20.861Z,49.05
2023-03-29T20:42:49.502Z,45.08
2023-03-29T20:45:20.163Z,49.65
2023-03-29T20:47:57.372Z,52.08
2023-03-29T20:50:29.045Z,59.13
2023-03-29T20:52:56.731Z,57.35
2023-03-29T20:55:24.344Z,67.30
2023-03-29T20:57:56.480Z,64.50
2023-03-29T21:00:25.026Z,50.53
2023-03-29T21:02:54.849Z,48.40
2023-03-29T21:05:22.917Z,50.42
2023-03-29T21:07:50.815Z,77.55
2023-03-29T21:10:18.263Z,78.43
2023-03-29T21:12:45.488Z,60.55
2023-03-29T21:15:13.219Z,75.60
2023-03-29T21:17:41.096Z,51.42
2023-03-29T21:20:10.849Z,47.42
2023-03-29T21:22:39.071Z,76.18
2023-03-29T21:25:08.266Z,55.08
2023-03-29T21:27:36.395Z,41.75
2023-03-29T21:30:05.475Z,50.65
2023-03-29T21:32:33.055Z,65.80
2023-03-29T21:35:00.207Z,58.30
2023-03-29T21:37:27.606Z,58.30
2023-03-29T21:39:54.981Z,35.42
2023-03-29T21:42:22.421Z,40.15
2023-03-29T21:44:49.839Z,39.20
2023-03-29T21:47:17.170Z,42.33
2023-03-29T21:49:44.328Z,32.08
2023-03-29T21:52:11.576Z,39.65
2023-03-29T21:54:39.135Z,35.85
2023-03-29T21:57:06.526Z,52.60
2023-03-29T21:59:34.239Z,46.95
2023-03-29T22:02:01.573Z,44.00
2023-03-29T22:04:36.676Z,47.47
2023-03-29T22:07:05.446Z,50.25
2023-03-29T22:09:34.326Z,54.38
2023-03-29T22:12:01.801Z,51.08
2023-03-29T22:14:29.947Z,61.78
2023-03-29T22:16:57.473Z,64.32
2023-03-29T22:19:24.791Z,60.05
2023-03-29T22:21:52.547Z,60.33
2023-03-29T22:24:19.651Z,64.10
2023-03-29T22:26:47.922Z,66.68
2023-03-29T22:29:15.697Z,57.33
2023-03-29T22:31:43.045Z,55.72
2023-03-29T22:34:10.283Z,53.55
2023-03-29T22:36:37.628Z,50.22
2023-03-29T22:39:05.450Z,66.82
2023-03-29T22:41:32.439Z,63.63
2023-03-29T22:44:01.222Z,65.80
2023-03-29T22:46:28.626Z,68.32
2023-03-29T22:48:55.978Z,63.50
2023-03-29T22:51:23.675Z,66.28
2023-03-29T22:53:51.480Z,58.22
2023-03-29T22:56:18.558Z,52.15
2023-03-29T22:58:46.488Z,59.25
2023-03-29T23:01:13.699Z,76.43
2023-03-29T23:03:41.319Z,77.72
2023-03-29T23:06:08.703Z,78.22
2023-03-29T23:08:35.918Z,76.05
2023-03-29T23:11:04.073Z,70.15
2023-03-29T23:13:33.134Z,74.85
2023-03-29T23:16:00.821Z,73.57
2023-03-29T23:18:29.304Z,82.80
2023-03-29T23:20:57.628Z,70.45
2023-03-29T23:23:25.832Z,72.13
2023-03-29T23:25:53.778Z,41.13
2023-03-29T23:28:23.502Z,40.75
2023-03-29T23:31:02.452Z,49.75
2023-03-29T23:33:33.742Z,49.65
2023-03-29T23:36:05.136Z,60.08
2023-03-29T23:38:33.853Z,68.57
2023-03-29T23:41:02.580Z,46.60
2023-03-29T23:43:32.713Z,54.85
2023-03-29T23:46:02.154Z,59.28
2023-03-29T23:48:29.607Z,51.55
2023-03-29T23:51:00.098Z,47.10
2023-03-29T23:53:28.386Z,45.25
2023-03-29T23:56:00.453Z,50.08
2023-03-29T23:58:29.046Z,40.40
